createdAt,value
2023-04-07T00:01:08.336Z,1.75
2023-04-07T00:03:38.217Z,1.80
2023-04-07T00:06:06.020Z,2.08
2023-04-07T00:08:35.058Z,1.75
2023-04-07T00:11:02.288Z,1.80
2023-04-07T00:13:30.613Z,1.85
2023-04-07T00:15:58.093Z,2.03
2023-04-07T00:18:27.620Z,1.80
2023-04-07T00:20:54.892Z,2.10
2023-04-07T00:23:27.248Z,1.90
2023-04-07T00:25:54.770Z,1.95
2023-04-07T00:28:22.046Z,1.95
2023-04-07T00:30:49.323Z,2.30
2023-04-07T00:33:19.009Z,1.83
2023-04-07T00:35:46.284Z,1.73
2023-04-07T00:38:15.910Z,1.83
2023-04-07T00:40:45.913Z,1.70
2023-04-07T00:43:13.084Z,1.85
2023-04-07T00:45:40.886Z,1.80
2023-04-07T00:48:08.209Z,1.70
2023-04-07T00:50:35.403Z,1.90
2023-04-07T00:53:02.775Z,1.70
2023-04-07T00:55:30.170Z,1.63
2023-04-07T00:57:57.346Z,1.70
2023-04-07T01:00:27.455Z,1.95
2023-04-07T01:03:05.769Z,1.73
2023-04-07T01:05:41.283Z,1.67
2023-04-07T01:08:24.276Z,1.92
2023-04-07T01:11:13.149Z,1.67
2023-04-07T01:13:50.821Z,1.88
2023-04-07T01:16:35.218Z,1.75
2023-04-07T01:19:23.916Z,1.80
2023-04-07T01:21:58.687Z,1.80
2023-04-07T01:25:06.497Z,1.70
2023-04-07T01:28:01.116Z,1.85
2023-04-07T01:30:31.447Z,1.88
2023-04-07T01:33:00.436Z,2.05
2023-04-07T01:35:33.461Z,1.85
2023-04-07T01:38:02.415Z,1.70
2023-04-07T01:40:30.892Z,1.50
2023-04-07T01:43:00.444Z,1.83
2023-04-07T01:45:28.993Z,1.80
2023-04-07T01:47:56.725Z,1.60
2023-04-07T01:50:25.029Z,1.70
2023-04-07T01:52:52.945Z,1.67
2023-04-07T01:55:20.384Z,1.90
2023-04-07T01:58:06.291Z,1.65
2023-04-07T02:00:37.465Z,1.98
2023-04-07T02:03:21.464Z,1.83
2023-04-07T02:05:52.418Z,1.58
2023-04-07T02:08:24.214Z,1.75
2023-04-07T02:10:52.856Z,1.67
2023-04-07T02:13:21.283Z,1.70
2023-04-07T02:15:50.811Z,1.77
2023-04-07T02:18:23.029Z,1.60
2023-04-07T02:20:53.976Z,1.80
2023-04-07T02:23:21.205Z,1.70
2023-04-07T02:25:50.743Z,1.80
2023-04-07T02:28:17.968Z,1.80
2023-04-07T02:30:46.178Z,1.55
2023-04-07T02:33:13.377Z,1.40
2023-04-07T02:35:42.061Z,1.50
2023-04-07T02:38:09.286Z,1.63
2023-04-07T02:40:36.781Z,1.77
2023-04-07T02:43:06.580Z,1.60
2023-04-07T02:45:43.877Z,1.50
2023-04-07T02:48:11.251Z,1.77
2023-04-07T02:50:38.891Z,1.80
2023-04-07T02:53:06.181Z,1.80
2023-04-07T02:55:33.472Z,1.88
2023-04-07T02:58:01.082Z,1.83
2023-04-07T03:00:37.611Z,1.77
2023-04-07T03:03:11.816Z,1.80
2023-04-07T03:05:42.149Z,1.65
2023-04-07T03:08:12.774Z,1.70
2023-04-07T03:10:40.519Z,1.60
2023-04-07T03:13:09.046Z,1.60
2023-04-07T03:15:37.420Z,1.83
2023-04-07T03:18:05.394Z,1.50
2023-04-07T03:20:32.703Z,1.83
2023-04-07T03:25:33.398Z,1.90
2023-04-07T03:28:02.085Z,1.92
2023-04-07T03:30:35.648Z,1.67
2023-04-07T03:33:03.032Z,1.63
2023-04-07T03:35:31.804Z,1.70
2023-04-07T03:37:58.960Z,1.52
2023-04-07T03:40:26.852Z,1.65
2023-04-07T03:42:54.189Z,1.65
2023-04-07T03:45:22.091Z,1.48
2023-04-07T03:47:54.303Z,1.63
2023-04-07T03:50:22.832Z,1.70
2023-04-07T03:53:09.242Z,1.80
2023-04-07T03:55:37.809Z,1.60
2023-04-07T03:58:13.356Z,1.60
2023-04-07T04:00:44.785Z,1.70
2023-04-07T04:03:12.945Z,1.67
2023-04-07T04:05:56.683Z,1.42
2023-04-07T04:08:31.845Z,1.60
2023-04-07T04:10:59.049Z,1.58
2023-04-07T04:13:32.350Z,1.60
2023-04-07T04:16:04.296Z,1.77
2023-04-07T04:18:31.833Z,1.60
2023-04-07T04:21:02.260Z,1.50
2023-04-07T04:23:29.791Z,1.52
2023-04-07T04:26:00.159Z,1.65
2023-04-07T04:28:28.203Z,1.60
2023-04-07T04:30:56.057Z,2.08
2023-04-07T04:33:24.438Z,1.70
2023-04-07T04:35:55.423Z,1.50
2023-04-07T04:38:23.259Z,1.65
2023-04-07T04:40:58.560Z,1.50
2023-04-07T04:43:29.496Z,1.52
2023-04-07T04:45:59.411Z,1.60
2023-04-07T04:48:29.023Z,1.60
2023-04-07T04:50:56.260Z,1.60
2023-04-07T04:53:25.922Z,1.55
2023-04-07T04:55:57.513Z,1.60
2023-04-07T04:58:37.862Z,1.80
2023-04-07T05:01:07.841Z,1.50
2023-04-07T05:03:42.639Z,1.45
2023-04-07T05:06:18.679Z,1.50
2023-04-07T05:08:48.575Z,1.45
2023-04-07T05:11:18.327Z,1.50
2023-04-07T05:13:50.223Z,1.48
2023-04-07T05:16:17.668Z,1.60
2023-04-07T05:18:44.844Z,1.40
2023-04-07T05:21:14.367Z,1.63
2023-04-07T05:23:41.688Z,1.40
2023-04-07T05:26:11.408Z,1.75
2023-04-07T05:28:39.200Z,1.73
2023-04-07T05:31:13.292Z,2.03
2023-04-07T05:33:42.924Z,1.90
2023-04-07T05:36:10.413Z,1.92
2023-04-07T05:38:40.387Z,1.60
2023-04-07T05:41:12.492Z,1.70
2023-04-07T05:43:39.790Z,1.90
2023-04-07T05:46:07.356Z,1.52
2023-04-07T05:48:39.021Z,2.35
2023-04-07T05:51:06.384Z,2.35
2023-04-07T05:53:33.726Z,2.40
2023-04-07T05:56:01.461Z,2.20
2023-04-07T05:58:41.955Z,2.17
2023-04-07T06:01:10.413Z,1.98
2023-04-07T06:03:37.763Z,1.75
2023-04-07T06:06:23.459Z,1.90
2023-04-07T06:08:59.623Z,1.65
2023-04-07T06:11:31.302Z,1.88
2023-04-07T06:13:59.246Z,1.80
2023-04-07T06:16:26.723Z,1.92
2023-04-07T06:18:54.009Z,1.90
2023-04-07T06:21:21.251Z,1.80
2023-04-07T06:23:48.985Z,1.80
2023-04-07T06:26:16.862Z,1.63
2023-04-07T06:28:44.320Z,1.75
2023-04-07T06:31:14.017Z,1.60
2023-04-07T06:33:43.983Z,1.80
2023-04-07T06:36:11.990Z,1.50
2023-04-07T06:38:41.427Z,1.90
2023-04-07T06:41:11.712Z,2.30
2023-04-07T06:43:39.214Z,2.65
2023-04-07T06:46:08.293Z,2.90
2023-04-07T06:48:35.841Z,2.40
2023-04-07T06:51:03.168Z,2.60
2023-04-07T06:53:32.795Z,2.25
2023-04-07T06:56:11.434Z,2.25
2023-04-07T06:58:38.939Z,2.60
2023-04-07T07:01:06.808Z,1.90
2023-04-07T07:03:36.964Z,1.80
2023-04-07T07:06:04.483Z,2.30
2023-04-07T07:08:31.954Z,2.88
2023-04-07T07:10:59.395Z,2.33
2023-04-07T07:13:29.368Z,2.72
2023-04-07T07:15:56.800Z,2.08
2023-04-07T07:18:24.507Z,2.40
2023-04-07T07:20:51.985Z,2.30
2023-04-07T07:23:19.420Z,2.25
2023-04-07T07:25:46.785Z,2.47
2023-04-07T07:28:14.274Z,2.10
2023-04-07T07:30:45.235Z,2.65
2023-04-07T07:33:12.769Z,2.38
2023-04-07T07:35:40.759Z,2.15
2023-04-07T07:38:11.304Z,2.30
2023-04-07T07:40:38.693Z,2.40
2023-04-07T07:43:06.724Z,1.98
2023-04-07T07:45:34.526Z,1.88
2023-04-07T07:48:01.850Z,2.20
2023-04-07T07:50:29.115Z,2.10
2023-04-07T07:52:56.602Z,2.10
2023-04-07T07:55:23.902Z,2.38
2023-04-07T07:57:51.270Z,2.13
2023-04-07T08:00:18.957Z,1.70
2023-04-07T08:02:49.410Z,1.90
2023-04-07T08:05:16.726Z,1.98
2023-04-07T08:07:46.933Z,1.95
2023-04-07T08:10:14.882Z,2.13
2023-04-07T08:12:45.909Z,1.60
2023-04-07T08:15:16.501Z,1.80
2023-04-07T08:17:46.958Z,2.30
2023-04-07T08:20:14.138Z,2.28
2023-04-07T08:22:41.446Z,1.67
2023-04-07T08:25:08.746Z,2.13
2023-04-07T08:27:38.292Z,1.80
2023-04-07T08:30:07.272Z,1.83
2023-04-07T08:32:43.373Z,1.80
2023-04-07T08:35:11.777Z,2.00
2023-04-07T08:37:40.103Z,1.60
2023-04-07T08:40:10.925Z,1.88
2023-04-07T08:42:45.397Z,2.22
2023-04-07T08:45:13.331Z,1.80
2023-04-07T08:47:44.592Z,1.75
2023-04-07T08:50:12.314Z,2.00
2023-04-07T08:53:07.299Z,2.15
2023-04-07T08:55:36.378Z,1.77
2023-04-07T08:58:04.376Z,2.45
2023-04-07T09:00:31.957Z,1.73
2023-04-07T09:03:00.583Z,1.77
2023-04-07T09:05:28.215Z,2.03
2023-04-07T09:07:55.643Z,1.77
2023-04-07T09:10:25.661Z,1.80
2023-04-07T09:12:53.169Z,1.80
2023-04-07T09:15:20.741Z,1.70
2023-04-07T09:17:48.589Z,1.70
2023-04-07T09:20:16.196Z,1.70
2023-04-07T09:22:50.327Z,1.77
2023-04-07T09:25:26.483Z,1.80
2023-04-07T09:28:05.918Z,2.08
2023-04-07T09:30:33.957Z,2.10
2023-04-07T09:33:02.382Z,1.98
2023-04-07T09:35:30.037Z,1.70
2023-04-07T09:38:10.708Z,1.60
2023-04-07T09:40:38.501Z,1.65
2023-04-07T09:43:06.152Z,1.80
2023-04-07T09:45:36.224Z,1.70
2023-04-07T09:48:19.202Z,2.30
2023-04-07T09:50:52.020Z,1.90
2023-04-07T09:53:20.336Z,1.83
2023-04-07T09:55:50.909Z,1.98
2023-04-07T09:58:18.675Z,1.70
2023-04-07T10:00:47.345Z,1.65
2023-04-07T10:03:15.472Z,1.70
2023-04-07T10:05:44.541Z,1.70
2023-04-07T10:08:12.180Z,1.70
2023-04-07T10:10:42.948Z,1.75
2023-04-07T10:13:12.912Z,1.60
2023-04-07T10:15:43.210Z,1.70
2023-04-07T10:18:18.555Z,1.42
2023-04-07T10:20:46.805Z,1.83
2023-04-07T10:23:23.380Z,1.60
2023-04-07T10:25:54.933Z,1.75
2023-04-07T10:28:27.461Z,1.65
2023-04-07T10:30:55.415Z,1.67
2023-04-07T10:33:46.591Z,1.60
2023-04-07T10:36:14.092Z,2.13
2023-04-07T10:38:42.715Z,1.77
2023-04-07T10:41:34.899Z,1.95
2023-04-07T10:44:08.268Z,2.20
2023-04-07T10:46:50.050Z,2.13
2023-04-07T10:49:19.051Z,2.22
2023-04-07T10:52:12.129Z,2.22
2023-04-07T10:54:44.121Z,2.13
2023-04-07T10:57:18.059Z,2.20
2023-04-07T11:00:10.576Z,2.30
2023-04-07T11:02:41.392Z,2.72
2023-04-07T11:05:19.985Z,2.30
2023-04-07T11:07:50.189Z,3.28
2023-04-07T11:10:19.303Z,2.75
2023-04-07T11:12:59.611Z,2.30
2023-04-07T11:15:27.100Z,3.05
2023-04-07T11:18:13.098Z,2.78
2023-04-07T11:20:48.833Z,2.63
2023-04-07T11:23:30.760Z,2.58
2023-04-07T11:26:02.128Z,2.92
2023-04-07T11:28:30.360Z,2.60
2023-04-07T11:30:58.567Z,3.13
2023-04-07T11:33:30.190Z,3.17
2023-04-07T11:35:59.732Z,2.40
2023-04-07T11:38:29.698Z,3.28
2023-04-07T11:40:57.510Z,3.13
2023-04-07T11:43:27.208Z,2.50
2023-04-07T11:46:08.083Z,2.40
2023-04-07T11:48:36.836Z,2.85
2023-04-07T11:51:04.690Z,2.63
2023-04-07T11:53:37.980Z,2.72
2023-04-07T11:56:10.129Z,2.80
2023-04-07T11:58:37.684Z,2.90
2023-04-07T12:01:09.302Z,2.63
2023-04-07T12:03:37.985Z,3.28
2023-04-07T12:06:05.980Z,2.40
2023-04-07T12:08:41.814Z,2.33
2023-04-07T12:11:11.382Z,2.50
2023-04-07T12:13:38.897Z,2.28
2023-04-07T12:16:06.305Z,2.20
2023-04-07T12:18:33.610Z,2.25
2023-04-07T12:21:01.305Z,2.53
2023-04-07T12:23:28.667Z,2.35
2023-04-07T12:25:55.975Z,2.38
2023-04-07T12:28:23.169Z,2.40
2023-04-07T12:30:50.543Z,2.50
2023-04-07T12:33:17.634Z,2.58
2023-04-07T12:35:47.454Z,3.10
2023-04-07T12:38:14.631Z,3.13
2023-04-07T12:40:44.110Z,3.88
2023-04-07T12:43:11.360Z,5.47
2023-04-07T12:45:40.801Z,6.03
2023-04-07T12:48:08.127Z,4.78
2023-04-07T12:50:37.876Z,4.03
2023-04-07T12:53:09.465Z,4.35
2023-04-07T12:55:39.829Z,5.35
2023-04-07T12:58:07.840Z,3.92
2023-04-07T13:00:37.244Z,3.58
2023-04-07T13:03:07.363Z,5.10
2023-04-07T13:05:35.610Z,3.97
2023-04-07T13:08:03.239Z,3.25
2023-04-07T13:10:30.492Z,4.97
2023-04-07T13:12:57.622Z,3.45
2023-04-07T13:15:28.318Z,3.40
2023-04-07T13:17:58.913Z,3.30
2023-04-07T13:20:28.305Z,3.25
2023-04-07T13:23:05.960Z,3.40
2023-04-07T13:25:35.306Z,3.08
2023-04-07T13:28:05.791Z,4.05
2023-04-07T13:30:36.317Z,3.50
2023-04-07T13:33:06.079Z,2.80
2023-04-07T13:35:35.985Z,3.30
2023-04-07T13:38:04.359Z,3.42
2023-04-07T13:40:31.586Z,3.53
2023-04-07T13:43:00.595Z,3.63
2023-04-07T13:45:27.793Z,3.33
2023-04-07T13:47:57.434Z,2.80
2023-04-07T13:50:24.884Z,3.58
2023-04-07T13:52:52.136Z,3.55
2023-04-07T13:55:20.384Z,3.53
2023-04-07T13:57:47.767Z,3.40
2023-04-07T14:00:15.531Z,2.85
2023-04-07T14:02:42.827Z,2.80
2023-04-07T14:05:10.270Z,2.83
2023-04-07T14:07:37.430Z,2.95
2023-04-07T14:10:04.825Z,2.60
2023-04-07T14:12:32.314Z,2.88
2023-04-07T14:15:02.019Z,3.03
2023-04-07T14:17:29.304Z,3.00
2023-04-07T14:19:56.670Z,2.95
2023-04-07T14:22:23.841Z,2.70
2023-04-07T14:24:51.214Z,2.63
2023-04-07T14:27:20.947Z,3.17
2023-04-07T14:29:48.854Z,2.97
2023-04-07T14:32:17.139Z,2.85
2023-04-07T14:34:46.783Z,2.83
2023-04-07T14:37:14.248Z,2.58
2023-04-07T14:39:55.335Z,2.60
2023-04-07T14:42:30.285Z,2.80
2023-04-07T14:45:13.528Z,2.90
2023-04-07T14:47:53.330Z,2.72
2023-04-07T14:50:31.396Z,2.63
2023-04-07T14:53:09.827Z,2.25
2023-04-07T14:55:38.646Z,2.65
2023-04-07T14:58:06.071Z,2.25
2023-04-07T15:00:36.200Z,2.55
2023-04-07T15:03:05.047Z,2.03
2023-04-07T15:05:33.074Z,2.28
2023-04-07T15:08:04.507Z,2.50
2023-04-07T15:10:35.533Z,2.20
2023-04-07T15:13:04.872Z,2.33
2023-04-07T15:15:32.102Z,2.08
2023-04-07T15:17:59.989Z,2.00
2023-04-07T15:20:27.542Z,1.90
2023-04-07T15:22:57.126Z,1.90
2023-04-07T15:25:25.006Z,2.15
2023-04-07T15:27:52.177Z,2.17
2023-04-07T15:30:19.618Z,2.13
2023-04-07T15:33:01.127Z,1.83
2023-04-07T15:35:31.254Z,2.17
2023-04-07T15:38:01.348Z,2.00
2023-04-07T15:41:09.680Z,2.00
2023-04-07T15:43:38.336Z,2.00
2023-04-07T15:46:06.870Z,2.20
2023-04-07T15:48:36.599Z,2.30
2023-04-07T15:51:06.796Z,1.90
2023-04-07T15:54:02.655Z,2.50
2023-04-07T15:56:29.907Z,2.45
2023-04-07T16:02:10.832Z,2.15
2023-04-07T16:05:17.974Z,2.28
2023-04-07T16:08:46.392Z,2.42
2023-04-07T16:11:26.406Z,2.70
2023-04-07T16:14:03.556Z,2.30
2023-04-07T16:16:53.491Z,2.63
2023-04-07T16:19:26.457Z,2.30
2023-04-07T16:21:54.888Z,2.50
2023-04-07T16:24:22.552Z,2.38
2023-04-07T16:26:51.501Z,2.15
2023-04-07T16:29:27.332Z,2.38
2023-04-07T16:31:54.811Z,2.25
2023-04-07T16:34:26.316Z,2.53
2023-04-07T16:36:57.691Z,2.63
2023-04-07T16:39:26.653Z,2.30
2023-04-07T16:41:55.586Z,2.17
2023-04-07T16:44:23.040Z,2.15
2023-04-07T16:46:50.281Z,2.25
2023-04-07T16:49:17.507Z,2.20
2023-04-07T16:51:44.796Z,2.20
2023-04-07T16:54:11.989Z,2.67
2023-04-07T16:56:39.259Z,1.92
2023-04-07T16:59:06.522Z,2.97
2023-04-07T17:01:33.755Z,2.72
2023-04-07T17:04:01.185Z,3.20
2023-04-07T17:06:28.542Z,2.65
2023-04-07T17:08:55.797Z,2.58
2023-04-07T17:11:23.015Z,2.75
2023-04-07T17:13:56.393Z,2.60
2023-04-07T17:16:25.204Z,3.13
2023-04-07T17:18:55.231Z,2.60
2023-04-07T17:21:22.518Z,2.35
2023-04-07T17:23:50.159Z,3.13
2023-04-07T17:26:20.718Z,3.03
2023-04-07T17:28:47.986Z,2.40
2023-04-07T17:31:16.228Z,2.60
2023-04-07T17:33:47.921Z,2.25
2023-04-07T17:36:15.710Z,2.83
2023-04-07T17:38:43.045Z,2.58
2023-04-07T17:41:10.880Z,2.42
2023-04-07T17:43:41.452Z,2.22
2023-04-07T17:46:11.053Z,2.50
2023-04-07T17:48:38.579Z,2.40
2023-04-07T17:51:05.929Z,3.03
2023-04-07T17:53:33.425Z,2.58
2023-04-07T17:56:00.859Z,3.28
2023-04-07T17:58:28.299Z,3.45
2023-04-07T18:00:55.646Z,3.53
2023-04-07T18:03:23.270Z,4.15
2023-04-07T18:05:50.741Z,4.25
2023-04-07T18:08:18.122Z,4.18
2023-04-07T18:10:49.507Z,4.70
2023-04-07T18:13:16.796Z,4.70
2023-04-07T18:15:44.301Z,4.40
2023-04-07T18:18:11.602Z,4.65
2023-04-07T18:20:38.811Z,4.82
2023-04-07T18:23:06.117Z,4.60
2023-04-07T18:25:33.304Z,4.85
2023-04-07T18:28:02.032Z,5.65
2023-04-07T18:30:30.370Z,4.82
2023-04-07T18:32:57.918Z,5.55
2023-04-07T18:35:25.615Z,4.90
2023-04-07T18:37:53.722Z,5.32
2023-04-07T18:40:21.248Z,4.65
2023-04-07T18:42:48.560Z,5.60
2023-04-07T18:45:15.961Z,5.25
2023-04-07T18:47:43.055Z,6.13
2023-04-07T18:50:10.623Z,5.20
2023-04-07T18:52:37.872Z,4.70
2023-04-07T18:55:09.209Z,4.60
2023-04-07T18:57:38.567Z,4.68
2023-04-07T19:00:06.184Z,4.88
2023-04-07T19:02:33.510Z,5.05
2023-04-07T19:05:04.483Z,4.97
2023-04-07T19:07:31.772Z,4.75
2023-04-07T19:09:58.936Z,4.95
2023-04-07T19:12:26.099Z,4.63
2023-04-07T19:14:53.425Z,4.45
2023-04-07T19:17:23.954Z,4.20
2023-04-07T19:19:51.216Z,4.07
2023-04-07T19:22:18.519Z,4.60
2023-04-07T19:24:48.011Z,4.03
2023-04-07T19:27:15.445Z,4.30
2023-04-07T19:29:44.920Z,4.68
2023-04-07T19:32:12.522Z,4.43
2023-04-07T19:34:42.477Z,3.65
2023-04-07T19:37:09.825Z,4.85
2023-04-07T19:39:37.482Z,4.60
2023-04-07T19:42:04.745Z,4.50
2023-04-07T19:44:32.072Z,4.15
2023-04-07T19:47:01.882Z,4.00
2023-04-07T19:49:29.178Z,4.32
2023-04-07T19:51:56.349Z,4.03
2023-04-07T19:54:23.482Z,4.10
2023-04-07T19:56:50.865Z,4.03
2023-04-07T19:59:18.070Z,3.70
2023-04-07T20:01:47.463Z,4.32
2023-04-07T20:04:14.789Z,3.50
2023-04-07T20:06:41.951Z,3.78
2023-04-07T20:09:10.380Z,3.78
2023-04-07T20:11:37.580Z,3.85
2023-04-07T20:14:07.275Z,4.38
2023-04-07T20:16:34.713Z,4.38
2023-04-07T20:19:05.277Z,3.40
2023-04-07T20:21:32.529Z,4.30
2023-04-07T20:23:59.773Z,4.05
2023-04-07T20:26:29.199Z,4.03
2023-04-07T20:28:56.482Z,3.90
2023-04-07T20:31:23.903Z,3.63
2023-04-07T20:33:51.104Z,3.33
2023-04-07T20:36:23.593Z,4.18
2023-04-07T20:38:50.888Z,3.70
2023-04-07T20:41:18.305Z,3.50
2023-04-07T20:43:45.667Z,3.60
2023-04-07T20:46:12.922Z,3.72
2023-04-07T20:48:40.072Z,3.30
2023-04-07T20:51:07.649Z,3.75
2023-04-07T20:53:34.881Z,3.95
2023-04-07T20:56:03.056Z,3.90
2023-04-07T20:58:32.474Z,3.45
2023-04-07T21:01:00.819Z,3.38
2023-04-07T21:03:30.880Z,3.40
2023-04-07T21:05:58.320Z,3.50
2023-04-07T21:08:25.486Z,3.50
2023-04-07T21:10:53.333Z,3.08
2023-04-07T21:13:22.312Z,3.40
2023-04-07T21:15:49.528Z,3.15
2023-04-07T21:18:18.039Z,3.13
2023-04-07T21:20:46.652Z,3.38
2023-04-07T21:23:13.765Z,2.95
2023-04-07T21:25:43.314Z,3.33
2023-04-07T21:28:12.801Z,3.55
2023-04-07T21:30:45.470Z,3.10
2023-04-07T21:33:15.008Z,2.88
2023-04-07T21:35:42.153Z,3.38
2023-04-07T21:38:09.321Z,3.15
2023-04-07T21:40:39.085Z,3.10
2023-04-07T21:43:06.657Z,2.80
2023-04-07T21:45:36.356Z,3.00
2023-04-07T21:48:04.183Z,2.97
2023-04-07T21:50:31.473Z,3.20
2023-04-07T21:53:01.001Z,2.97
2023-04-07T21:55:28.290Z,3.08
2023-04-07T21:57:55.661Z,2.83
2023-04-07T22:00:22.892Z,3.03
2023-04-07T22:02:51.626Z,2.75
2023-04-07T22:05:19.006Z,3.22
2023-04-07T22:07:46.790Z,3.20
2023-04-07T22:10:16.813Z,3.30
2023-04-07T22:12:44.464Z,3.38
2023-04-07T22:15:12.385Z,3.28
2023-04-07T22:17:42.363Z,2.78
2023-04-07T22:20:10.691Z,2.67
2023-04-07T22:22:38.156Z,3.00
2023-04-07T22:25:06.033Z,2.90
2023-04-07T22:27:37.660Z,2.65
2023-04-07T22:30:08.453Z,2.70
2023-04-07T22:32:36.448Z,3.20
2023-04-07T22:35:06.709Z,2.78
2023-04-07T22:37:33.833Z,2.67
2023-04-07T22:40:01.472Z,3.00
2023-04-07T22:42:28.731Z,3.17
2023-04-07T22:44:55.932Z,3.00
2023-04-07T22:47:23.839Z,2.47
2023-04-07T22:49:53.521Z,2.80
2023-04-07T22:52:20.877Z,2.58
2023-04-07T22:54:48.080Z,3.13
2023-04-07T22:57:19.738Z,2.90
2023-04-07T22:59:46.982Z,2.75
2023-04-07T23:02:14.355Z,2.75
2023-04-07T23:04:41.868Z,2.60
2023-04-07T23:07:09.192Z,2.53
2023-04-07T23:09:36.614Z,2.40
2023-04-07T23:12:04.168Z,2.55
2023-04-07T23:14:31.292Z,2.75
2023-04-07T23:16:58.718Z,2.97
2023-04-07T23:19:25.964Z,2.75
2023-04-07T23:21:53.531Z,2.60
2023-04-07T23:24:20.922Z,2.50
2023-04-07T23:26:48.153Z,2.63
2023-04-07T23:29:15.658Z,2.72
2023-04-07T23:31:42.867Z,2.85
2023-04-07T23:34:10.210Z,2.55
2023-04-07T23:36:39.473Z,2.75
2023-04-07T23:39:06.624Z,2.83
2023-04-07T23:41:36.333Z,2.72
2023-04-07T23:44:03.808Z,2.78
2023-04-07T23:46:31.130Z,2.17
2023-04-07T23:48:58.335Z,2.60
2023-04-07T23:51:26.440Z,2.80
2023-04-07T23:53:53.756Z,2.85
2023-04-07T23:56:28.994Z,2.47
2023-04-07T23:58:56.290Z,2.72
